Terminal Aerodrome Forecast
Issued by NWS

Home | Current Version | Previous Version | Text Only | Print | Product List | Glossary On
Versions: 1 2 3 4 5 6 7 8 9 10 11 12 13 14 15
000
FTUS43 KFGF 201134
TAFTVF
TAF
KTVF 201134Z 2012/2112 14009KT P6SM FEW250
     FM201300 15013KT P6SM FEW250
     FM201600 16018G30KT P6SM SCT250
     FM210000 16015G25KT P6SM SCT110 BKN250
     FM210400 16014KT P6SM BKN060=

USA.gov is the U.S. government's official web portal to all federal, state and local government web resources and services.